sensor_id;sensor_type;location;lat;lon;timestamp;pressure;altitude;pressure_sealevel;temperature
63220;BMP180;49320;52.512;13.448;2022-10-16T00:01:37;100690.00;;;22.40
63220;BMP180;49320;52.512;13.448;2022-10-16T00:04:05;100699.00;;;22.40
63220;BMP180;49320;52.512;13.448;2022-10-16T00:06:32;100701.00;;;22.40
63220;BMP180;49320;52.512;13.448;2022-10-16T00:08:59;100703.00;;;22.50
63220;BMP180;49320;52.512;13.448;2022-10-16T00:11:32;100703.00;;;22.50
63220;BMP180;49320;52.512;13.448;2022-10-16T00:14:03;100706.00;;;22.50
63220;BMP180;49320;52.512;13.448;2022-10-16T00:16:30;100708.00;;;22.60
63220;BMP180;49320;52.512;13.448;2022-10-16T00:18:58;100705.00;;;22.60
63220;BMP180;49320;52.512;13.448;2022-10-16T00:21:28;100709.00;;;22.70
63220;BMP180;49320;52.512;13.448;2022-10-16T00:24:04;100698.00;;;22.70
63220;BMP180;49320;52.512;13.448;2022-10-16T00:26:34;100695.00;;;22.80
63220;BMP180;49320;52.512;13.448;2022-10-16T00:29:01;100712.00;;;22.80
63220;BMP180;49320;52.512;13.448;2022-10-16T00:31:29;100714.00;;;22.80
63220;BMP180;49320;52.512;13.448;2022-10-16T00:33:56;100723.00;;;22.90
63220;BMP180;49320;52.512;13.448;2022-10-16T00:36:26;100725.00;;;22.90
63220;BMP180;49320;52.512;13.448;2022-10-16T00:38:55;100721.00;;;22.90
63220;BMP180;49320;52.512;13.448;2022-10-16T00:41:24;100722.00;;;22.90
63220;BMP180;49320;52.512;13.448;2022-10-16T00:43:53;100723.00;;;23.00
63220;BMP180;49320;52.512;13.448;2022-10-16T00:46:41;100715.00;;;22.90
63220;BMP180;49320;52.512;13.448;2022-10-16T00:49:12;100714.00;;;22.90
63220;BMP180;49320;52.512;13.448;2022-10-16T00:51:49;100714.00;;;22.90
63220;BMP180;49320;52.512;13.448;2022-10-16T00:54:29;100716.00;;;22.90
63220;BMP180;49320;52.512;13.448;2022-10-16T00:57:01;100717.00;;;22.90
63220;BMP180;49320;52.512;13.448;2022-10-16T00:59:39;100715.00;;;23.00
63220;BMP180;49320;52.512;13.448;2022-10-16T01:02:12;100717.00;;;22.90
63220;BMP180;49320;52.512;13.448;2022-10-16T01:04:47;100728.00;;;22.90
63220;BMP180;49320;52.512;13.448;2022-10-16T01:07:47;100722.00;;;22.90
63220;BMP180;49320;52.512;13.448;2022-10-16T01:10:40;100736.00;;;22.90
63220;BMP180;49320;52.512;13.448;2022-10-16T01:13:13;100738.00;;;22.90
63220;BMP180;49320;52.512;13.448;2022-10-16T01:16:17;100726.00;;;22.80
63220;BMP180;49320;52.512;13.448;2022-10-16T01:18:52;100725.00;;;22.90
63220;BMP180;49320;52.512;13.448;2022-10-16T01:21:32;100733.00;;;22.90
63220;BMP180;49320;52.512;13.448;2022-10-16T01:27:08;100748.00;;;22.80
63220;BMP180;49320;52.512;13.448;2022-10-16T01:29:52;100746.00;;;22.80
63220;BMP180;49320;52.512;13.448;2022-10-16T01:32:37;100744.00;;;22.70
63220;BMP180;49320;52.512;13.448;2022-10-16T01:35:22;100747.00;;;22.80
63220;BMP180;49320;52.512;13.448;2022-10-16T01:38:07;100749.00;;;22.80
63220;BMP180;49320;52.512;13.448;2022-10-16T01:40:39;100751.00;;;22.80
63220;BMP180;49320;52.512;13.448;2022-10-16T01:43:12;100750.00;;;22.80
63220;BMP180;49320;52.512;13.448;2022-10-16T01:45:44;100762.00;;;22.80
63220;BMP180;49320;52.512;13.448;2022-10-16T01:48:16;100756.00;;;22.80
63220;BMP180;49320;52.512;13.448;2022-10-16T01:50:53;100762.00;;;22.80
63220;BMP180;49320;52.512;13.448;2022-10-16T01:53:22;100763.00;;;22.80
63220;BMP180;49320;52.512;13.448;2022-10-16T01:55:52;100768.00;;;22.80
63220;BMP180;49320;52.512;13.448;2022-10-16T01:58:23;100764.00;;;22.80
63220;BMP180;49320;52.512;13.448;2022-10-16T02:00:54;100759.00;;;22.80
63220;BMP180;49320;52.512;13.448;2022-10-16T02:03:21;100764.00;;;22.80
63220;BMP180;49320;52.512;13.448;2022-10-16T02:05:57;100772.00;;;22.80
63220;BMP180;49320;52.512;13.448;2022-10-16T02:08:28;100777.00;;;22.80
63220;BMP180;49320;52.512;13.448;2022-10-16T02:10:58;100769.00;;;22.80
63220;BMP180;49320;52.512;13.448;2022-10-16T02:13:38;100766.00;;;22.80
63220;BMP180;49320;52.512;13.448;2022-10-16T02:16:08;100777.00;;;22.80
63220;BMP180;49320;52.512;13.448;2022-10-16T02:18:35;100781.00;;;22.80
63220;BMP180;49320;52.512;13.448;2022-10-16T02:21:24;100783.00;;;22.90
63220;BMP180;49320;52.512;13.448;2022-10-16T02:24:08;100795.00;;;22.80
63220;BMP180;49320;52.512;13.448;2022-10-16T02:26:52;100811.00;;;22.80
63220;BMP180;49320;52.512;13.448;2022-10-16T02:29:25;100797.00;;;22.90
63220;BMP180;49320;52.512;13.448;2022-10-16T02:32:01;100785.00;;;22.90
63220;BMP180;49320;52.512;13.448;2022-10-16T02:34:32;100796.00;;;22.90
63220;BMP180;49320;52.512;13.448;2022-10-16T02:37:03;100792.00;;;22.90
63220;BMP180;49320;52.512;13.448;2022-10-16T02:39:31;100788.00;;;22.90
63220;BMP180;49320;52.512;13.448;2022-10-16T02:41:58;100800.00;;;22.90
63220;BMP180;49320;52.512;13.448;2022-10-16T02:44:24;100794.00;;;22.90
63220;BMP180;49320;52.512;13.448;2022-10-16T02:46:51;100798.00;;;22.90
63220;BMP180;49320;52.512;13.448;2022-10-16T02:49:18;100791.00;;;22.90
63220;BMP180;49320;52.512;13.448;2022-10-16T02:51:45;100797.00;;;23.00
63220;BMP180;49320;52.512;13.448;2022-10-16T02:54:11;100787.00;;;23.00
63220;BMP180;49320;52.512;13.448;2022-10-16T02:56:39;100793.00;;;23.00
63220;BMP180;49320;52.512;13.448;2022-10-16T02:59:06;100789.00;;;23.00
63220;BMP180;49320;52.512;13.448;2022-10-16T03:01:32;100797.00;;;23.00
63220;BMP180;49320;52.512;13.448;2022-10-16T03:03:59;100800.00;;;23.00
63220;BMP180;49320;52.512;13.448;2022-10-16T03:06:26;100789.00;;;23.00
63220;BMP180;49320;52.512;13.448;2022-10-16T03:08:53;100792.00;;;23.00
63220;BMP180;49320;52.512;13.448;2022-10-16T03:11:20;100801.00;;;22.90
63220;BMP180;49320;52.512;13.448;2022-10-16T03:13:47;100805.00;;;22.90
63220;BMP180;49320;52.512;13.448;2022-10-16T03:16:13;100812.00;;;22.90
63220;BMP180;49320;52.512;13.448;2022-10-16T03:18:40;100815.00;;;22.90
63220;BMP180;49320;52.512;13.448;2022-10-16T03:21:07;100810.00;;;22.90
63220;BMP180;49320;52.512;13.448;2022-10-16T03:23:34;100818.00;;;22.90
63220;BMP180;49320;52.512;13.448;2022-10-16T03:26:00;100819.00;;;22.90
63220;BMP180;49320;52.512;13.448;2022-10-16T03:28:27;100817.00;;;22.90
63220;BMP180;49320;52.512;13.448;2022-10-16T03:30:54;100824.00;;;22.90
63220;BMP180;49320;52.512;13.448;2022-10-16T03:33:21;100830.00;;;22.90
63220;BMP180;49320;52.512;13.448;2022-10-16T03:35:53;100831.00;;;22.90
63220;BMP180;49320;52.512;13.448;2022-10-16T03:38:21;100833.00;;;22.80
63220;BMP180;49320;52.512;13.448;2022-10-16T03:40:48;100838.00;;;22.80
63220;BMP180;49320;52.512;13.448;2022-10-16T03:43:15;100847.00;;;22.80
63220;BMP180;49320;52.512;13.448;2022-10-16T03:45:42;100864.00;;;22.80
63220;BMP180;49320;52.512;13.448;2022-10-16T03:48:09;100852.00;;;22.80
63220;BMP180;49320;52.512;13.448;2022-10-16T03:50:36;100856.00;;;22.80
63220;BMP180;49320;52.512;13.448;2022-10-16T03:53:03;100868.00;;;22.80
63220;BMP180;49320;52.512;13.448;2022-10-16T03:55:30;100874.00;;;22.70
63220;BMP180;49320;52.512;13.448;2022-10-16T03:57:57;100867.00;;;22.70
63220;BMP180;49320;52.512;13.448;2022-10-16T04:00:24;100865.00;;;22.70
63220;BMP180;49320;52.512;13.448;2022-10-16T04:02:50;100875.00;;;22.70
63220;BMP180;49320;52.512;13.448;2022-10-16T04:05:17;100866.00;;;22.70
63220;BMP180;49320;52.512;13.448;2022-10-16T04:07:44;100863.00;;;22.70
63220;BMP180;49320;52.512;13.448;2022-10-16T04:10:11;100878.00;;;22.70
63220;BMP180;49320;52.512;13.448;2022-10-16T04:12:37;100873.00;;;22.60
63220;BMP180;49320;52.512;13.448;2022-10-16T04:15:04;100879.00;;;22.60
63220;BMP180;49320;52.512;13.448;2022-10-16T04:17:31;100884.00;;;22.60
63220;BMP180;49320;52.512;13.448;2022-10-16T04:19:58;100875.00;;;22.60
63220;BMP180;49320;52.512;13.448;2022-10-16T04:22:25;100880.00;;;22.60
63220;BMP180;49320;52.512;13.448;2022-10-16T04:24:52;100884.00;;;22.60
63220;BMP180;49320;52.512;13.448;2022-10-16T04:27:19;100878.00;;;22.60
63220;BMP180;49320;52.512;13.448;2022-10-16T04:29:46;100886.00;;;22.50
63220;BMP180;49320;52.512;13.448;2022-10-16T04:32:13;100881.00;;;22.50
63220;BMP180;49320;52.512;13.448;2022-10-16T04:34:39;100874.00;;;22.50
63220;BMP180;49320;52.512;13.448;2022-10-16T04:37:06;100867.00;;;22.50
63220;BMP180;49320;52.512;13.448;2022-10-16T04:39:33;100883.00;;;22.50
63220;BMP180;49320;52.512;13.448;2022-10-16T04:42:00;100860.00;;;22.50
63220;BMP180;49320;52.512;13.448;2022-10-16T04:44:27;100865.00;;;22.50
63220;BMP180;49320;52.512;13.448;2022-10-16T04:46:53;100859.00;;;22.40
63220;BMP180;49320;52.512;13.448;2022-10-16T04:49:20;100859.00;;;22.40
63220;BMP180;49320;52.512;13.448;2022-10-16T04:51:47;100853.00;;;22.40
63220;BMP180;49320;52.512;13.448;2022-10-16T04:54:14;100866.00;;;22.40
63220;BMP180;49320;52.512;13.448;2022-10-16T04:56:41;100856.00;;;22.40
63220;BMP180;49320;52.512;13.448;2022-10-16T04:59:14;100863.00;;;22.40
63220;BMP180;49320;52.512;13.448;2022-10-16T05:01:41;100864.00;;;22.40
63220;BMP180;49320;52.512;13.448;2022-10-16T05:04:09;100875.00;;;22.30
63220;BMP180;49320;52.512;13.448;2022-10-16T05:06:36;100879.00;;;22.30
63220;BMP180;49320;52.512;13.448;2022-10-16T05:09:03;100889.00;;;22.30
63220;BMP180;49320;52.512;13.448;2022-10-16T05:11:30;100897.00;;;22.30
63220;BMP180;49320;52.512;13.448;2022-10-16T05:13:57;100909.00;;;22.30
63220;BMP180;49320;52.512;13.448;2022-10-16T05:16:24;100907.00;;;22.20
63220;BMP180;49320;52.512;13.448;2022-10-16T05:18:54;100909.00;;;22.20
63220;BMP180;49320;52.512;13.448;2022-10-16T05:21:29;100908.00;;;22.20
63220;BMP180;49320;52.512;13.448;2022-10-16T05:23:56;100916.00;;;22.20
63220;BMP180;49320;52.512;13.448;2022-10-16T05:26:23;100915.00;;;22.10
63220;BMP180;49320;52.512;13.448;2022-10-16T05:28:50;100899.00;;;22.10
63220;BMP180;49320;52.512;13.448;2022-10-16T05:31:17;100899.00;;;22.10
63220;BMP180;49320;52.512;13.448;2022-10-16T05:33:44;100907.00;;;22.10
63220;BMP180;49320;52.512;13.448;2022-10-16T05:36:11;100902.00;;;22.10
63220;BMP180;49320;52.512;13.448;2022-10-16T05:38:38;100888.00;;;22.10
63220;BMP180;49320;52.512;13.448;2022-10-16T05:41:05;100900.00;;;22.10
63220;BMP180;49320;52.512;13.448;2022-10-16T05:43:32;100912.00;;;22.10
63220;BMP180;49320;52.512;13.448;2022-10-16T05:46:04;100916.00;;;22.00
63220;BMP180;49320;52.512;13.448;2022-10-16T05:48:32;100913.00;;;22.00
63220;BMP180;49320;52.512;13.448;2022-10-16T05:51:05;100919.00;;;22.00
63220;BMP180;49320;52.512;13.448;2022-10-16T05:53:37;100914.00;;;22.00
63220;BMP180;49320;52.512;13.448;2022-10-16T05:56:06;100929.00;;;22.00
63220;BMP180;49320;52.512;13.448;2022-10-16T05:58:36;100914.00;;;22.00
63220;BMP180;49320;52.512;13.448;2022-10-16T06:01:11;100914.00;;;22.10
63220;BMP180;49320;52.512;13.448;2022-10-16T06:03:39;100915.00;;;22.00
63220;BMP180;49320;52.512;13.448;2022-10-16T06:06:15;100919.00;;;22.00
63220;BMP180;49320;52.512;13.448;2022-10-16T06:08:44;100911.00;;;22.10
63220;BMP180;49320;52.512;13.448;2022-10-16T06:11:18;100918.00;;;22.10
63220;BMP180;49320;52.512;13.448;2022-10-16T06:13:49;100923.00;;;22.10
63220;BMP180;49320;52.512;13.448;2022-10-16T06:16:16;100931.00;;;22.10
63220;BMP180;49320;52.512;13.448;2022-10-16T06:18:42;100931.00;;;22.10
63220;BMP180;49320;52.512;13.448;2022-10-16T06:21:14;100938.00;;;22.10
63220;BMP180;49320;52.512;13.448;2022-10-16T06:23:43;100953.00;;;22.20
63220;BMP180;49320;52.512;13.448;2022-10-16T06:26:20;100946.00;;;22.20
63220;BMP180;49320;52.512;13.448;2022-10-16T06:28:47;100934.00;;;22.30
63220;BMP180;49320;52.512;13.448;2022-10-16T06:31:16;100926.00;;;22.30
63220;BMP180;49320;52.512;13.448;2022-10-16T06:33:43;100943.00;;;22.30
63220;BMP180;49320;52.512;13.448;2022-10-16T06:36:16;100960.00;;;22.40
63220;BMP180;49320;52.512;13.448;2022-10-16T06:38:44;100960.00;;;22.40
63220;BMP180;49320;52.512;13.448;2022-10-16T06:41:17;100957.00;;;22.40
63220;BMP180;49320;52.512;13.448;2022-10-16T06:43:45;100971.00;;;22.50
63220;BMP180;49320;52.512;13.448;2022-10-16T06:46:16;100976.00;;;22.50
63220;BMP180;49320;52.512;13.448;2022-10-16T06:48:44;100967.00;;;22.60
63220;BMP180;49320;52.512;13.448;2022-10-16T06:51:14;100969.00;;;22.60
63220;BMP180;49320;52.512;13.448;2022-10-16T06:53:45;100978.00;;;22.60
63220;BMP180;49320;52.512;13.448;2022-10-16T06:56:30;100982.00;;;22.70
63220;BMP180;49320;52.512;13.448;2022-10-16T06:58:58;100979.00;;;22.70
63220;BMP180;49320;52.512;13.448;2022-10-16T07:01:27;100984.00;;;22.80
63220;BMP180;49320;52.512;13.448;2022-10-16T07:03:54;100982.00;;;22.80
63220;BMP180;49320;52.512;13.448;2022-10-16T07:06:23;100982.00;;;22.80
63220;BMP180;49320;52.512;13.448;2022-10-16T07:08:51;100992.00;;;22.90
63220;BMP180;49320;52.512;13.448;2022-10-16T07:11:22;100991.00;;;22.90
63220;BMP180;49320;52.512;13.448;2022-10-16T07:13:50;100998.00;;;23.00
63220;BMP180;49320;52.512;13.448;2022-10-16T07:16:28;101007.00;;;23.20
63220;BMP180;49320;52.512;13.448;2022-10-16T07:18:57;101020.00;;;23.30
63220;BMP180;49320;52.512;13.448;2022-10-16T07:21:30;101006.00;;;23.40
63220;BMP180;49320;52.512;13.448;2022-10-16T07:23:59;101013.00;;;23.60
63220;BMP180;49320;52.512;13.448;2022-10-16T07:26:30;100999.00;;;23.70
63220;BMP180;49320;52.512;13.448;2022-10-16T07:28:57;101012.00;;;23.80
63220;BMP180;49320;52.512;13.448;2022-10-16T07:31:24;101006.00;;;23.90
63220;BMP180;49320;52.512;13.448;2022-10-16T07:33:51;101014.00;;;24.00
63220;BMP180;49320;52.512;13.448;2022-10-16T07:36:20;101014.00;;;24.10
63220;BMP180;49320;52.512;13.448;2022-10-16T07:38:47;100997.00;;;24.10
63220;BMP180;49320;52.512;13.448;2022-10-16T07:41:18;101002.00;;;24.10
63220;BMP180;49320;52.512;13.448;2022-10-16T07:43:50;101012.00;;;24.20
63220;BMP180;49320;52.512;13.448;2022-10-16T07:46:19;101013.00;;;24.30
63220;BMP180;49320;52.512;13.448;2022-10-16T07:48:47;101031.00;;;24.30
63220;BMP180;49320;52.512;13.448;2022-10-16T07:51:18;101021.00;;;24.40
63220;BMP180;49320;52.512;13.448;2022-10-16T07:53:46;101006.00;;;24.40
63220;BMP180;49320;52.512;13.448;2022-10-16T07:56:14;101010.00;;;24.50
63220;BMP180;49320;52.512;13.448;2022-10-16T07:58:42;101015.00;;;24.50
63220;BMP180;49320;52.512;13.448;2022-10-16T08:01:14;101009.00;;;24.50
63220;BMP180;49320;52.512;13.448;2022-10-16T08:03:43;101010.00;;;24.50
63220;BMP180;49320;52.512;13.448;2022-10-16T08:06:11;101028.00;;;24.60
63220;BMP180;49320;52.512;13.448;2022-10-16T08:08:37;101037.00;;;24.60
63220;BMP180;49320;52.512;13.448;2022-10-16T08:11:04;101045.00;;;24.70
63220;BMP180;49320;52.512;13.448;2022-10-16T08:13:32;101035.00;;;24.70
63220;BMP180;49320;52.512;13.448;2022-10-16T08:15:58;101054.00;;;24.80
63220;BMP180;49320;52.512;13.448;2022-10-16T08:18:25;101063.00;;;24.90
63220;BMP180;49320;52.512;13.448;2022-10-16T08:20:59;101055.00;;;25.00
63220;BMP180;49320;52.512;13.448;2022-10-16T08:23:29;101049.00;;;25.00
63220;BMP180;49320;52.512;13.448;2022-10-16T08:26:07;101039.00;;;25.10
63220;BMP180;49320;52.512;13.448;2022-10-16T08:28:35;101039.00;;;25.10
63220;BMP180;49320;52.512;13.448;2022-10-16T08:31:08;101045.00;;;25.10
63220;BMP180;49320;52.512;13.448;2022-10-16T08:33:36;101051.00;;;25.10
63220;BMP180;49320;52.512;13.448;2022-10-16T08:36:05;101058.00;;;25.20
63220;BMP180;49320;52.512;13.448;2022-10-16T08:38:33;101060.00;;;25.20
63220;BMP180;49320;52.512;13.448;2022-10-16T08:44:51;101063.00;;;25.20
63220;BMP180;49320;52.512;13.448;2022-10-16T08:47:31;101065.00;;;25.20
63220;BMP180;49320;52.512;13.448;2022-10-16T08:50:11;101060.00;;;25.20
63220;BMP180;49320;52.512;13.448;2022-10-16T08:52:43;101063.00;;;25.30
63220;BMP180;49320;52.512;13.448;2022-10-16T08:58:00;101054.00;;;25.40
63220;BMP180;49320;52.512;13.448;2022-10-16T09:00:28;101061.00;;;25.40
63220;BMP180;49320;52.512;13.448;2022-10-16T09:03:38;101084.00;;;25.40
63220;BMP180;49320;52.512;13.448;2022-10-16T09:09:23;101073.00;;;25.40
63220;BMP180;49320;52.512;13.448;2022-10-16T09:12:22;101086.00;;;25.40
63220;BMP180;49320;52.512;13.448;2022-10-16T09:15:12;101086.00;;;25.40
63220;BMP180;49320;52.512;13.448;2022-10-16T09:18:30;101089.00;;;25.40
63220;BMP180;49320;52.512;13.448;2022-10-16T09:23:43;101095.00;;;25.50
63220;BMP180;49320;52.512;13.448;2022-10-16T09:26:13;101090.00;;;25.50
63220;BMP180;49320;52.512;13.448;2022-10-16T09:28:41;101088.00;;;25.50
63220;BMP180;49320;52.512;13.448;2022-10-16T09:31:18;101088.00;;;25.50
63220;BMP180;49320;52.512;13.448;2022-10-16T09:33:55;101090.00;;;25.50
63220;BMP180;49320;52.512;13.448;2022-10-16T09:36:27;101083.00;;;25.40
63220;BMP180;49320;52.512;13.448;2022-10-16T09:39:07;101093.00;;;25.50
63220;BMP180;49320;52.512;13.448;2022-10-16T09:41:38;101108.00;;;25.40
63220;BMP180;49320;52.512;13.448;2022-10-16T09:44:21;101100.00;;;25.40
63220;BMP180;49320;52.512;13.448;2022-10-16T09:46:49;101106.00;;;25.40
63220;BMP180;49320;52.512;13.448;2022-10-16T09:49:26;101100.00;;;25.40
63220;BMP180;49320;52.512;13.448;2022-10-16T09:52:15;101123.00;;;25.40
63220;BMP180;49320;52.512;13.448;2022-10-16T09:55:02;101123.00;;;25.40
63220;BMP180;49320;52.512;13.448;2022-10-16T09:57:29;101121.00;;;25.40
63220;BMP180;49320;52.512;13.448;2022-10-16T09:59:58;101121.00;;;25.40
63220;BMP180;49320;52.512;13.448;2022-10-16T10:02:35;101121.00;;;25.40
63220;BMP180;49320;52.512;13.448;2022-10-16T10:05:05;101124.00;;;25.30
63220;BMP180;49320;52.512;13.448;2022-10-16T10:07:44;101118.00;;;25.30
63220;BMP180;49320;52.512;13.448;2022-10-16T10:10:29;101131.00;;;25.30
63220;BMP180;49320;52.512;13.448;2022-10-16T10:12:57;101147.00;;;25.40
63220;BMP180;49320;52.512;13.448;2022-10-16T10:15:25;101136.00;;;25.40
63220;BMP180;49320;52.512;13.448;2022-10-16T10:17:56;101143.00;;;25.50
63220;BMP180;49320;52.512;13.448;2022-10-16T10:20:36;101142.00;;;25.60
63220;BMP180;49320;52.512;13.448;2022-10-16T10:23:24;101142.00;;;25.70
63220;BMP180;49320;52.512;13.448;2022-10-16T10:26:18;101140.00;;;25.70
63220;BMP180;49320;52.512;13.448;2022-10-16T10:28:59;101151.00;;;25.80
63220;BMP180;49320;52.512;13.448;2022-10-16T10:31:49;101152.00;;;25.80
63220;BMP180;49320;52.512;13.448;2022-10-16T10:34:57;101147.00;;;25.90
63220;BMP180;49320;52.512;13.448;2022-10-16T10:38:04;101158.00;;;26.00
63220;BMP180;49320;52.512;13.448;2022-10-16T10:40:56;101170.00;;;26.00
63220;BMP180;49320;52.512;13.448;2022-10-16T10:55:31;101151.00;;;26.30
63220;BMP180;49320;52.512;13.448;2022-10-16T10:58:55;101166.00;;;26.40
63220;BMP180;49320;52.512;13.448;2022-10-16T11:01:56;101169.00;;;26.40
63220;BMP180;49320;52.512;13.448;2022-10-16T11:05:19;101171.00;;;26.50
63220;BMP180;49320;52.512;13.448;2022-10-16T11:11:00;101180.00;;;26.70
63220;BMP180;49320;52.512;13.448;2022-10-16T11:13:52;101171.00;;;26.70
63220;BMP180;49320;52.512;13.448;2022-10-16T11:16:28;101181.00;;;26.80
63220;BMP180;49320;52.512;13.448;2022-10-16T11:22:17;101172.00;;;26.90
63220;BMP180;49320;52.512;13.448;2022-10-16T11:24:54;101167.00;;;27.00
63220;BMP180;49320;52.512;13.448;2022-10-16T11:27:41;101177.00;;;27.00
63220;BMP180;49320;52.512;13.448;2022-10-16T11:30:49;101168.00;;;27.10
63220;BMP180;49320;52.512;13.448;2022-10-16T11:35:59;101181.00;;;27.10
63220;BMP180;49320;52.512;13.448;2022-10-16T11:38:52;101171.00;;;27.10
63220;BMP180;49320;52.512;13.448;2022-10-16T11:41:29;101174.00;;;27.00
63220;BMP180;49320;52.512;13.448;2022-10-16T11:44:36;101169.00;;;26.90
63220;BMP180;49320;52.512;13.448;2022-10-16T11:47:33;101175.00;;;26.80
63220;BMP180;49320;52.512;13.448;2022-10-16T11:51:14;101172.00;;;26.70
63220;BMP180;49320;52.512;13.448;2022-10-16T11:53:49;101177.00;;;26.70
63220;BMP180;49320;52.512;13.448;2022-10-16T11:56:20;101172.00;;;26.60
63220;BMP180;49320;52.512;13.448;2022-10-16T11:59:00;101174.00;;;26.50
63220;BMP180;49320;52.512;13.448;2022-10-16T12:01:41;101182.00;;;26.40
63220;BMP180;49320;52.512;13.448;2022-10-16T12:04:58;101188.00;;;26.30
63220;BMP180;49320;52.512;13.448;2022-10-16T12:07:45;101199.00;;;26.20
63220;BMP180;49320;52.512;13.448;2022-10-16T12:10:23;101198.00;;;26.10
63220;BMP180;49320;52.512;13.448;2022-10-16T12:12:53;101192.00;;;26.10
63220;BMP180;49320;52.512;13.448;2022-10-16T12:18:23;101206.00;;;26.10
63220;BMP180;49320;52.512;13.448;2022-10-16T12:21:00;101205.00;;;26.00
63220;BMP180;49320;52.512;13.448;2022-10-16T12:23:37;101203.00;;;26.00
63220;BMP180;49320;52.512;13.448;2022-10-16T12:26:05;101203.00;;;26.00
63220;BMP180;49320;52.512;13.448;2022-10-16T12:28:33;101204.00;;;26.00
63220;BMP180;49320;52.512;13.448;2022-10-16T12:31:07;101213.00;;;26.00
63220;BMP180;49320;52.512;13.448;2022-10-16T12:33:40;101210.00;;;26.00
63220;BMP180;49320;52.512;13.448;2022-10-16T12:36:33;101219.00;;;26.00
63220;BMP180;49320;52.512;13.448;2022-10-16T12:39:01;101204.00;;;26.00
63220;BMP180;49320;52.512;13.448;2022-10-16T12:41:32;101212.00;;;26.10
63220;BMP180;49320;52.512;13.448;2022-10-16T12:44:00;101211.00;;;26.10
63220;BMP180;49320;52.512;13.448;2022-10-16T12:51:43;101221.00;;;26.10
63220;BMP180;49320;52.512;13.448;2022-10-16T12:54:24;101222.00;;;26.10
63220;BMP180;49320;52.512;13.448;2022-10-16T13:11:41;101238.00;;;26.20
63220;BMP180;49320;52.512;13.448;2022-10-16T13:23:27;101258.00;;;26.20
63220;BMP180;49320;52.512;13.448;2022-10-16T13:26:25;101257.00;;;26.20
63220;BMP180;49320;52.512;13.448;2022-10-16T13:28:59;101270.00;;;26.20
63220;BMP180;49320;52.512;13.448;2022-10-16T13:31:28;101266.00;;;26.20
63220;BMP180;49320;52.512;13.448;2022-10-16T13:33:58;101274.00;;;26.20
63220;BMP180;49320;52.512;13.448;2022-10-16T13:36:30;101267.00;;;26.30
63220;BMP180;49320;52.512;13.448;2022-10-16T13:39:28;101277.00;;;26.30
63220;BMP180;49320;52.512;13.448;2022-10-16T13:42:11;101269.00;;;26.40
63220;BMP180;49320;52.512;13.448;2022-10-16T13:44:51;101265.00;;;26.40
63220;BMP180;49320;52.512;13.448;2022-10-16T13:47:23;101278.00;;;26.40
63220;BMP180;49320;52.512;13.448;2022-10-16T13:50:10;101273.00;;;26.50
63220;BMP180;49320;52.512;13.448;2022-10-16T13:52:38;101272.00;;;26.50
63220;BMP180;49320;52.512;13.448;2022-10-16T13:55:17;101269.00;;;26.50
63220;BMP180;49320;52.512;13.448;2022-10-16T13:57:45;101272.00;;;26.50
63220;BMP180;49320;52.512;13.448;2022-10-16T14:00:25;101275.00;;;26.40
63220;BMP180;49320;52.512;13.448;2022-10-16T14:03:21;101283.00;;;26.40
63220;BMP180;49320;52.512;13.448;2022-10-16T14:05:52;101279.00;;;26.40
63220;BMP180;49320;52.512;13.448;2022-10-16T14:08:20;101288.00;;;26.40
63220;BMP180;49320;52.512;13.448;2022-10-16T14:10:54;101289.00;;;26.40
63220;BMP180;49320;52.512;13.448;2022-10-16T14:13:37;101284.00;;;26.40
63220;BMP180;49320;52.512;13.448;2022-10-16T14:16:15;101290.00;;;26.40
63220;BMP180;49320;52.512;13.448;2022-10-16T14:18:52;101298.00;;;26.40
63220;BMP180;49320;52.512;13.448;2022-10-16T14:21:21;101290.00;;;26.40
63220;BMP180;49320;52.512;13.448;2022-10-16T14:23:47;101299.00;;;26.40
63220;BMP180;49320;52.512;13.448;2022-10-16T14:26:19;101294.00;;;26.40
63220;BMP180;49320;52.512;13.448;2022-10-16T14:28:47;101292.00;;;26.40
63220;BMP180;49320;52.512;13.448;2022-10-16T14:31:33;101295.00;;;26.30
63220;BMP180;49320;52.512;13.448;2022-10-16T14:34:00;101295.00;;;26.30
63220;BMP180;49320;52.512;13.448;2022-10-16T14:36:28;101289.00;;;26.30
63220;BMP180;49320;52.512;13.448;2022-10-16T14:41:31;101291.00;;;26.30
63220;BMP180;49320;52.512;13.448;2022-10-16T14:44:03;101293.00;;;26.30
63220;BMP180;49320;52.512;13.448;2022-10-16T14:46:37;101298.00;;;26.20
63220;BMP180;49320;52.512;13.448;2022-10-16T14:51:39;101306.00;;;26.20
63220;BMP180;49320;52.512;13.448;2022-10-16T14:54:15;101311.00;;;26.20
63220;BMP180;49320;52.512;13.448;2022-10-16T14:56:53;101307.00;;;26.20
63220;BMP180;49320;52.512;13.448;2022-10-16T14:59:41;101314.00;;;26.20
63220;BMP180;49320;52.512;13.448;2022-10-16T15:02:29;101321.00;;;26.20
63220;BMP180;49320;52.512;13.448;2022-10-16T15:04:58;101318.00;;;26.10
63220;BMP180;49320;52.512;13.448;2022-10-16T15:07:28;101321.00;;;26.10
63220;BMP180;49320;52.512;13.448;2022-10-16T15:09:55;101316.00;;;26.10
63220;BMP180;49320;52.512;13.448;2022-10-16T15:12:23;101315.00;;;26.10
63220;BMP180;49320;52.512;13.448;2022-10-16T15:14:50;101322.00;;;26.00
63220;BMP180;49320;52.512;13.448;2022-10-16T15:17:17;101327.00;;;26.00
63220;BMP180;49320;52.512;13.448;2022-10-16T15:19:47;101330.00;;;26.00
63220;BMP180;49320;52.512;13.448;2022-10-16T15:22:14;101324.00;;;26.00
63220;BMP180;49320;52.512;13.448;2022-10-16T15:24:41;101339.00;;;26.00
63220;BMP180;49320;52.512;13.448;2022-10-16T15:27:08;101334.00;;;26.00
63220;BMP180;49320;52.512;13.448;2022-10-16T15:29:35;101346.00;;;25.90
63220;BMP180;49320;52.512;13.448;2022-10-16T15:32:02;101356.00;;;25.90
63220;BMP180;49320;52.512;13.448;2022-10-16T15:34:29;101350.00;;;25.80